createdAt,value
2022-09-23T00:01:08.955Z,101374.09
2022-09-23T00:03:39.319Z,101373.44
2022-09-23T00:06:17.992Z,101368.41
2022-09-23T00:08:45.277Z,101376.72
2022-09-23T00:11:13.845Z,101372.53
2022-09-23T00:13:43.338Z,101366.94
2022-09-23T00:16:17.300Z,101370.34
2022-09-23T00:18:44.725Z,101369.84
2022-09-23T00:21:14.447Z,101370.94
2022-09-23T00:23:43.433Z,101369.56
2022-09-23T00:26:13.811Z,101366.06
2022-09-23T00:28:41.451Z,101361.22
2022-09-23T00:31:14.611Z,101366.63
2022-09-23T00:33:42.015Z,101364.28
2022-09-23T00:36:15.575Z,101364.84
2022-09-23T00:38:46.032Z,101362.88
2022-09-23T00:41:16.924Z,101368.66
2022-09-23T00:43:50.309Z,101359.28
2022-09-23T00:46:25.495Z,101359.75
2022-09-23T00:49:00.048Z,101356.56
2022-09-23T00:51:33.384Z,101360.19
2022-09-23T00:54:01.471Z,101358.84
2022-09-23T00:56:31.224Z,101357.13
2022-09-23T00:59:00.818Z,101346.72
2022-09-23T01:01:28.105Z,101350.22
2022-09-23T01:03:56.935Z,101348.63
2022-09-23T01:06:24.620Z,101348.50
2022-09-23T01:08:52.591Z,101348.63
2022-09-23T01:11:52.324Z,101342.06
2022-09-23T01:15:01.297Z,101343.00
2022-09-23T01:17:44.141Z,101337.75
2022-09-23T01:20:28.935Z,101341.16
2022-09-23T01:23:20.767Z,101330.16
2022-09-23T01:26:14.081Z,101335.25
2022-09-23T01:28:50.696Z,101330.91
2022-09-23T01:31:36.929Z,101331.81
2022-09-23T01:34:10.079Z,101330.38
2022-09-23T01:36:49.144Z,101333.78
2022-09-23T01:39:31.970Z,101326.78
2022-09-23T01:42:17.332Z,101330.91
2022-09-23T01:44:59.116Z,101326.97
2022-09-23T01:47:34.578Z,101318.16
2022-09-23T01:50:33.402Z,101317.97
2022-09-23T01:53:24.301Z,101321.38
2022-09-23T01:55:57.202Z,101323.59
2022-09-23T01:58:30.618Z,101315.91
2022-09-23T02:01:03.079Z,101316.44
2022-09-23T02:03:55.654Z,101311.47
2022-09-23T02:06:29.470Z,101308.84
2022-09-23T02:09:05.028Z,101308.78
2022-09-23T02:11:38.596Z,101309.44
2022-09-23T02:14:38.748Z,101317.19
2022-09-23T02:17:13.573Z,101318.25
2022-09-23T02:19:48.848Z,101317.72
2022-09-23T02:22:26.540Z,101318.16
2022-09-23T02:24:57.633Z,101318.66
2022-09-23T02:27:40.836Z,101309.44
2022-09-23T02:30:14.092Z,101310.31
2022-09-23T02:32:53.400Z,101305.81
2022-09-23T02:35:40.256Z,101309.44
2022-09-23T02:38:10.380Z,101305.34
2022-09-23T02:40:55.896Z,101305.94
2022-09-23T02:43:36.134Z,101300.72
2022-09-23T02:46:04.889Z,101307.09
2022-09-23T02:48:37.852Z,101304.75
2022-09-23T02:51:05.395Z,101294.56
2022-09-23T02:53:33.899Z,101306.53
2022-09-23T02:56:02.307Z,101290.56
2022-09-23T02:58:30.024Z,101293.28
2022-09-23T03:01:15.793Z,101292.09
2022-09-23T03:03:49.402Z,101295.94
2022-09-23T03:06:32.035Z,101296.13
2022-09-23T03:09:09.179Z,101291.47
2022-09-23T03:11:40.885Z,101290.00
2022-09-23T03:14:21.968Z,101290.19
2022-09-23T03:16:59.097Z,101285.84
2022-09-23T03:19:33.824Z,101286.69
2022-09-23T03:22:14.973Z,101282.78
2022-09-23T03:24:44.893Z,101281.00
2022-09-23T03:27:14.236Z,101277.69
2022-09-23T03:29:45.489Z,101273.41
2022-09-23T03:32:15.779Z,101273.66
2022-09-23T03:34:44.821Z,101278.81
2022-09-23T03:37:35.773Z,101282.13
2022-09-23T03:40:18.071Z,101278.50
2022-09-23T03:42:48.824Z,101278.81
2022-09-23T03:45:19.791Z,101268.28
2022-09-23T03:47:47.732Z,101270.34
2022-09-23T03:50:17.328Z,101269.56
2022-09-23T03:52:44.948Z,101264.25
2022-09-23T03:55:12.187Z,101268.50
2022-09-23T03:57:39.664Z,101265.19
2022-09-23T04:00:07.882Z,101252.19
2022-09-23T04:02:41.845Z,101257.88
2022-09-23T04:05:10.757Z,101256.94
2022-09-23T04:07:38.329Z,101261.06
2022-09-23T04:10:06.393Z,101251.72
2022-09-23T04:12:33.581Z,101250.78
2022-09-23T04:15:00.842Z,101252.69
2022-09-23T04:17:28.252Z,101243.25
2022-09-23T04:19:55.522Z,101245.81
2022-09-23T04:22:22.676Z,101246.22
2022-09-23T04:24:49.963Z,101243.06
2022-09-23T04:27:17.108Z,101247.69
2022-09-23T04:29:44.537Z,101239.84
2022-09-23T04:32:11.820Z,101243.59
2022-09-23T04:34:40.020Z,101244.72
2022-09-23T04:37:07.416Z,101239.53
2022-09-23T04:39:34.775Z,101242.06
2022-09-23T04:42:02.962Z,101242.72
2022-09-23T04:44:30.253Z,101239.25
2022-09-23T04:46:57.538Z,101242.56
2022-09-23T04:49:25.524Z,101241.13
2022-09-23T04:51:52.747Z,101244.31
2022-09-23T04:54:20.125Z,101242.59
2022-09-23T04:56:47.336Z,101242.59
2022-09-23T04:59:14.593Z,101248.06
2022-09-23T05:01:41.918Z,101247.06
2022-09-23T05:04:13.321Z,101254.63
2022-09-23T05:06:40.515Z,101252.78
2022-09-23T05:09:08.886Z,101248.81
2022-09-23T05:11:36.273Z,101247.47
2022-09-23T05:14:03.638Z,101252.38
2022-09-23T05:16:30.904Z,101251.84
2022-09-23T05:18:58.465Z,101258.66
2022-09-23T05:21:28.824Z,101251.91
2022-09-23T05:23:58.940Z,101253.97
2022-09-23T05:26:29.026Z,101259.78
2022-09-23T05:28:57.074Z,101258.72
2022-09-23T05:31:27.183Z,101256.81
2022-09-23T05:34:02.925Z,101255.88
2022-09-23T05:36:37.610Z,101257.47
2022-09-23T05:39:07.824Z,101254.00
2022-09-23T05:41:35.920Z,101254.94
2022-09-23T05:44:03.257Z,101253.16
2022-09-23T05:46:31.215Z,101262.44
2022-09-23T05:49:02.890Z,101254.38
2022-09-23T05:51:32.514Z,101250.88
2022-09-23T05:54:02.893Z,101255.69
2022-09-23T05:56:32.433Z,101258.88
2022-09-23T05:59:01.738Z,101250.84
2022-09-23T06:01:35.352Z,101255.91
2022-09-23T06:04:05.374Z,101256.44
2022-09-23T06:06:41.442Z,101245.91
2022-09-23T06:09:13.345Z,101252.56
2022-09-23T06:11:41.705Z,101249.75
2022-09-23T06:14:12.319Z,101245.38
2022-09-23T06:16:39.452Z,101250.38
2022-09-23T06:19:07.167Z,101250.25
2022-09-23T06:21:35.568Z,101245.59
2022-09-23T06:24:05.930Z,101251.41
2022-09-23T06:26:37.455Z,101252.84
2022-09-23T06:29:11.873Z,101240.06
2022-09-23T06:31:40.676Z,101240.66
2022-09-23T06:34:14.422Z,101248.19
2022-09-23T06:36:45.547Z,101250.94
2022-09-23T06:39:14.456Z,101250.81
2022-09-23T06:41:41.423Z,101248.09
2022-09-23T06:44:14.309Z,101237.53
2022-09-23T06:46:42.278Z,101245.31
2022-09-23T06:49:09.642Z,101239.50
2022-09-23T06:51:36.929Z,101236.09
2022-09-23T06:54:04.674Z,101239.06
2022-09-23T06:56:36.341Z,101241.09
2022-09-23T06:59:09.713Z,101233.78
2022-09-23T07:01:37.022Z,101239.69
2022-09-23T07:04:04.490Z,101244.81
2022-09-23T07:06:31.715Z,101247.31
2022-09-23T07:08:58.846Z,101236.66
2022-09-23T07:11:25.876Z,101239.22
2022-09-23T07:13:52.908Z,101242.34
2022-09-23T07:16:21.075Z,101252.28
2022-09-23T07:18:49.344Z,101250.41
2022-09-23T07:21:17.483Z,101249.72
2022-09-23T07:23:47.433Z,101247.69
2022-09-23T07:26:16.912Z,101253.44
2022-09-23T07:28:44.177Z,101250.81
2022-09-23T07:31:15.269Z,101255.97
2022-09-23T07:33:44.286Z,101246.50
2022-09-23T07:36:14.309Z,101256.44
2022-09-23T07:38:45.300Z,101258.97
2022-09-23T07:41:17.114Z,101256.81
2022-09-23T07:43:46.010Z,101258.47
2022-09-23T07:46:16.848Z,101256.97
2022-09-23T07:48:45.802Z,101253.28
2022-09-23T07:51:18.361Z,101266.97
2022-09-23T07:53:51.181Z,101260.66
2022-09-23T07:56:19.896Z,101271.56
2022-09-23T07:58:59.829Z,101265.19
2022-09-23T08:01:35.072Z,101273.06
2022-09-23T08:04:05.495Z,101265.81
2022-09-23T08:06:33.616Z,101270.63
2022-09-23T08:09:01.691Z,101263.50
2022-09-23T08:11:29.024Z,101260.56
2022-09-23T08:13:57.375Z,101259.94
2022-09-23T08:16:24.743Z,101257.88
2022-09-23T08:18:52.130Z,101253.84
2022-09-23T08:21:21.248Z,101255.28
2022-09-23T08:23:48.944Z,101252.19
2022-09-23T08:26:21.624Z,101260.41
2022-09-23T08:28:50.527Z,101259.94
2022-09-23T08:31:17.793Z,101254.69
2022-09-23T08:33:45.427Z,101258.19
2022-09-23T08:36:12.691Z,101263.66
2022-09-23T08:38:39.967Z,101258.00
2022-09-23T08:41:21.455Z,101266.19
2022-09-23T08:43:54.281Z,101266.16
2022-09-23T08:46:33.626Z,101259.25
2022-09-23T08:49:01.992Z,101253.31
2022-09-23T08:51:35.887Z,101257.91
2022-09-23T08:54:04.548Z,101257.47
2022-09-23T08:56:46.505Z,101255.41
2022-09-23T08:59:41.997Z,101253.28
2022-09-23T09:02:28.376Z,101257.38
2022-09-23T09:05:03.275Z,101255.53
2022-09-23T09:07:40.240Z,101258.13
2022-09-23T09:10:15.572Z,101245.69
2022-09-23T09:13:07.464Z,101235.63
2022-09-23T09:15:45.712Z,101240.38
2022-09-23T09:18:21.672Z,101243.91
2022-09-23T09:20:57.334Z,101231.69
2022-09-23T09:23:30.997Z,101233.88
2022-09-23T09:26:01.615Z,101234.88
2022-09-23T09:28:33.882Z,101228.19
2022-09-23T09:31:05.715Z,101229.63
2022-09-23T09:34:05.537Z,101229.69
2022-09-23T09:36:57.838Z,101229.56
2022-09-23T09:39:26.438Z,101224.19
2022-09-23T09:41:59.651Z,101234.19
2022-09-23T09:44:45.743Z,101226.19
2022-09-23T09:47:34.946Z,101224.88
2022-09-23T09:50:08.143Z,101226.44
2022-09-23T09:52:39.851Z,101227.78
2022-09-23T09:55:13.056Z,101222.00
2022-09-23T09:57:45.514Z,101231.50
2022-09-23T10:00:22.003Z,101230.09
2022-09-23T10:02:54.994Z,101239.09
2022-09-23T10:05:33.044Z,101233.88
2022-09-23T10:08:34.938Z,101225.91
2022-09-23T10:11:17.036Z,101218.31
2022-09-23T10:14:10.779Z,101229.22
2022-09-23T10:16:40.020Z,101218.78
2022-09-23T10:19:17.157Z,101216.78
2022-09-23T10:21:58.805Z,101212.59
2022-09-23T10:24:32.141Z,101214.94
2022-09-23T10:27:12.014Z,101207.00
2022-09-23T10:29:48.592Z,101208.19
2022-09-23T10:32:22.040Z,101202.75
2022-09-23T10:35:04.589Z,101208.97
2022-09-23T10:37:42.178Z,101203.84
2022-09-23T10:40:40.896Z,101213.44
2022-09-23T10:43:38.859Z,101210.31
2022-09-23T10:46:29.462Z,101204.22
2022-09-23T10:48:59.789Z,101198.66
2022-09-23T10:51:40.836Z,101194.50
2022-09-23T10:54:46.281Z,101191.91
2022-09-23T10:57:42.772Z,101196.66
2022-09-23T11:00:17.500Z,101194.88
2022-09-23T11:02:59.635Z,101197.72
2022-09-23T11:05:55.288Z,101186.56
2022-09-23T11:08:35.122Z,101185.38
2022-09-23T11:11:21.768Z,101185.91
2022-09-23T11:13:54.580Z,101181.81
2022-09-23T11:16:32.454Z,101178.59
2022-09-23T11:19:13.428Z,101169.53
2022-09-23T11:21:52.941Z,101174.38
2022-09-23T11:24:32.846Z,101173.50
2022-09-23T11:27:26.555Z,101152.34
2022-09-23T11:30:14.387Z,101157.78
2022-09-23T11:33:05.336Z,101155.81
2022-09-23T11:36:05.059Z,101151.69
2022-09-23T11:38:43.485Z,101142.06
2022-09-23T11:41:25.834Z,101132.47
2022-09-23T11:44:08.075Z,101131.81
2022-09-23T11:46:45.904Z,101131.06
2022-09-23T11:49:31.800Z,101130.94
2022-09-23T11:52:05.208Z,101130.03
2022-09-23T11:55:17.072Z,101131.56
2022-09-23T11:57:51.571Z,101131.31
2022-09-23T12:00:22.147Z,101119.75
2022-09-23T12:03:05.529Z,101120.66
2022-09-23T12:06:12.299Z,101125.69
2022-09-23T12:08:39.674Z,101118.00
2022-09-23T12:11:34.872Z,101120.88
2022-09-23T12:14:15.995Z,101109.41
2022-09-23T12:17:07.522Z,101100.81
2022-09-23T12:20:09.262Z,101116.69
2022-09-23T12:22:47.958Z,101105.97
2022-09-23T12:25:27.500Z,101102.84
2022-09-23T12:28:01.582Z,101099.53
2022-09-23T12:30:32.741Z,101107.03
2022-09-23T12:33:18.374Z,101094.50
2022-09-23T12:35:46.161Z,101099.72
2022-09-23T12:38:20.142Z,101087.97
2022-09-23T12:40:48.281Z,101092.94
2022-09-23T12:43:35.470Z,101088.78
2022-09-23T12:46:18.240Z,101084.03
2022-09-23T12:48:57.906Z,101090.09
2022-09-23T12:51:31.569Z,101077.84
2022-09-23T12:54:04.810Z,101084.44
2022-09-23T12:56:33.135Z,101074.09
2022-09-23T12:59:05.584Z,101069.84
2022-09-23T13:01:37.846Z,101065.38
2022-09-23T13:04:24.973Z,101062.94
2022-09-23T13:07:06.343Z,101069.22
2022-09-23T13:09:46.952Z,101046.41
2022-09-23T13:12:23.248Z,101056.38
2022-09-23T13:14:54.770Z,101053.84
2022-09-23T13:17:35.916Z,101054.88
2022-09-23T13:20:33.437Z,101056.31
2022-09-23T13:23:17.802Z,101045.13
2022-09-23T13:25:46.689Z,101041.75
2022-09-23T13:28:27.750Z,101040.59
2022-09-23T13:30:56.557Z,101042.53
2022-09-23T13:33:28.469Z,101031.81
2022-09-23T13:36:02.363Z,101036.09
2022-09-23T13:38:32.264Z,101042.38
2022-09-23T13:41:05.158Z,101037.41
2022-09-23T13:43:44.909Z,101025.28
2022-09-23T13:46:25.257Z,101034.84
2022-09-23T13:48:55.976Z,101031.81
2022-09-23T13:51:30.909Z,101026.25
2022-09-23T13:54:01.501Z,101031.13
2022-09-23T13:56:31.725Z,101022.84
2022-09-23T13:59:26.958Z,101018.13
2022-09-23T14:02:17.730Z,101025.53
2022-09-23T14:04:46.469Z,101008.16
2022-09-23T14:07:19.584Z,101009.84
2022-09-23T14:09:52.317Z,101009.16
2022-09-23T14:12:22.533Z,101016.84
2022-09-23T14:14:57.164Z,101000.22
2022-09-23T14:17:24.446Z,100997.41
2022-09-23T14:19:52.030Z,100998.13
2022-09-23T14:22:28.918Z,100996.41
2022-09-23T14:24:58.412Z,100996.88
2022-09-23T14:27:33.768Z,100993.25
2022-09-23T14:30:06.715Z,100990.81
2022-09-23T14:32:35.599Z,100992.13
2022-09-23T14:35:05.516Z,100990.69
2022-09-23T14:38:05.941Z,100989.63
2022-09-23T14:40:36.795Z,100983.97
2022-09-23T14:43:05.228Z,100988.41
2022-09-23T14:45:37.180Z,100977.25
2022-09-23T14:48:17.600Z,100983.97
2022-09-23T14:50:57.581Z,100983.97
2022-09-23T14:53:40.785Z,100984.88
2022-09-23T14:56:22.496Z,100980.09
2022-09-23T14:59:00.540Z,100982.72
2022-09-23T15:01:31.255Z,100982.66
2022-09-23T15:04:18.792Z,100966.97
2022-09-23T15:06:53.581Z,100978.78
2022-09-23T15:09:36.000Z,100977.56
2022-09-23T15:12:14.125Z,100973.22
2022-09-23T15:14:46.560Z,100986.16
2022-09-23T15:17:35.168Z,100967.88
2022-09-23T15:20:07.078Z,100974.19
2022-09-23T15:22:52.008Z,100964.72
2022-09-23T15:25:25.679Z,100965.63
2022-09-23T15:28:06.620Z,100961.75
2022-09-23T15:30:39.028Z,100971.47
2022-09-23T15:33:06.675Z,100968.13
2022-09-23T15:35:34.585Z,100963.78
2022-09-23T15:38:04.503Z,100961.97
2022-09-23T15:40:37.257Z,100963.88
2022-09-23T15:43:21.748Z,100956.09
2022-09-23T15:46:05.361Z,100944.72
2022-09-23T15:48:44.171Z,100950.56
2022-09-23T15:51:15.087Z,100952.59
2022-09-23T15:53:42.513Z,100951.44
2022-09-23T15:56:10.246Z,100940.84
2022-09-23T15:58:37.518Z,100949.09
2022-09-23T16:01:06.834Z,100941.22
2022-09-23T16:03:35.708Z,100942.41
2022-09-23T16:06:04.700Z,100934.44
2022-09-23T16:08:33.729Z,100941.56
2022-09-23T16:11:01.707Z,100933.59
2022-09-23T16:13:29.600Z,100939.03
2022-09-23T16:15:57.622Z,100943.09
2022-09-23T16:18:24.991Z,100942.41
2022-09-23T16:20:54.157Z,100941.19
2022-09-23T16:23:43.818Z,100937.97
2022-09-23T16:26:17.179Z,100933.50
2022-09-23T16:28:46.163Z,100933.63
2022-09-23T16:31:17.837Z,100945.78
2022-09-23T16:33:47.608Z,100924.63
2022-09-23T16:36:27.816Z,100936.16
2022-09-23T16:38:55.882Z,100940.47
2022-09-23T16:41:24.343Z,100940.84
2022-09-23T16:43:53.403Z,100943.47
2022-09-23T16:46:22.518Z,100930.66
2022-09-23T16:48:52.936Z,100936.59
2022-09-23T16:51:23.956Z,100933.38
2022-09-23T16:53:52.844Z,100929.00
2022-09-23T16:56:27.954Z,100936.72
2022-09-23T16:58:56.626Z,100938.09
2022-09-23T17:01:45.142Z,100931.28
2022-09-23T17:04:13.248Z,100945.03
2022-09-23T17:06:51.015Z,100946.78
2022-09-23T17:09:20.585Z,100944.09
2022-09-23T17:11:56.280Z,100944.94
2022-09-23T17:14:23.570Z,100930.22
2022-09-23T17:16:51.194Z,100944.94
2022-09-23T17:19:18.652Z,100947.91
2022-09-23T17:21:46.450Z,100949.44
2022-09-23T17:24:15.109Z,100947.44
2022-09-23T17:26:50.657Z,100953.66
2022-09-23T17:29:20.204Z,100954.56
2022-09-23T17:31:48.110Z,100955.41
2022-09-23T17:34:16.305Z,100951.81
2022-09-23T17:36:43.499Z,100952.66
2022-09-23T17:39:11.053Z,100949.25
2022-09-23T17:41:39.241Z,100952.00
2022-09-23T17:44:08.097Z,100947.34
2022-09-23T17:46:35.523Z,100957.28
2022-09-23T17:49:04.306Z,100960.66
2022-09-23T17:51:34.456Z,100958.56
2022-09-23T17:54:01.773Z,100946.38
2022-09-23T17:56:33.802Z,100964.13
2022-09-23T17:59:02.276Z,100961.19
2022-09-23T18:01:29.773Z,100966.09
2022-09-23T18:04:02.149Z,100969.03
2022-09-23T18:06:31.706Z,100975.81
2022-09-23T18:09:06.672Z,100962.31
2022-09-23T18:11:40.591Z,100960.00
2022-09-23T18:14:19.658Z,100966.09
2022-09-23T18:16:50.988Z,100978.09
2022-09-23T18:19:22.572Z,100986.50
2022-09-23T18:21:54.451Z,100982.78
2022-09-23T18:24:38.706Z,100982.56
2022-09-23T18:27:06.837Z,100970.84
2022-09-23T18:29:35.335Z,100987.25
2022-09-23T18:32:03.861Z,100987.19
2022-09-23T18:34:31.182Z,100981.66
2022-09-23T18:36:59.094Z,100990.84
2022-09-23T18:39:26.612Z,100973.81
2022-09-23T18:41:54.797Z,100977.19
2022-09-23T18:44:23.270Z,100994.41
2022-09-23T18:46:50.909Z,100991.56
2022-09-23T18:49:36.593Z,100981.72
2022-09-23T18:52:03.953Z,100988.94
2022-09-23T18:54:31.450Z,100993.31
2022-09-23T18:57:00.067Z,100993.91
2022-09-23T18:59:29.608Z,100994.44
2022-09-23T19:01:57.548Z,100997.47
2022-09-23T19:04:26.700Z,100992.63
2022-09-23T19:06:56.415Z,100996.16
2022-09-23T19:09:24.349Z,101002.72
2022-09-23T19:11:52.597Z,100996.56
2022-09-23T19:14:20.133Z,100991.97
2022-09-23T19:16:49.205Z,100998.59
2022-09-23T19:19:17.756Z,100994.56
2022-09-23T19:21:45.154Z,100989.03
2022-09-23T19:24:15.880Z,101001.88
2022-09-23T19:26:47.191Z,101005.91
2022-09-23T19:29:16.998Z,101002.75
2022-09-23T19:31:44.548Z,100988.41
2022-09-23T19:34:19.961Z,101001.88
2022-09-23T19:36:47.862Z,100996.53
2022-09-23T19:39:22.827Z,100995.59
2022-09-23T19:41:52.740Z,100980.06
2022-09-23T19:44:20.374Z,100991.38
2022-09-23T19:46:55.100Z,100983.06
2022-09-23T19:49:24.678Z,100976.41
2022-09-23T19:51:55.768Z,100970.69
2022-09-23T19:54:26.438Z,100984.53
2022-09-23T19:56:54.232Z,100980.34
2022-09-23T19:59:21.646Z,100974.81
2022-09-23T20:01:49.343Z,100988.28
2022-09-23T20:04:17.411Z,100978.16
2022-09-23T20:06:46.726Z,100991.66
2022-09-23T20:09:15.840Z,100974.63
2022-09-23T20:11:44.134Z,100983.41
2022-09-23T20:14:11.933Z,100981.56
2022-09-23T20:16:40.331Z,100972.91
2022-09-23T20:19:09.769Z,100984.72
2022-09-23T20:21:37.320Z,100985.00
2022-09-23T20:24:06.439Z,100976.13
2022-09-23T20:26:54.170Z,100991.66
2022-09-23T20:29:21.550Z,100981.56
2022-09-23T20:31:48.904Z,100989.50
2022-09-23T20:34:16.520Z,101000.84
2022-09-23T20:36:44.209Z,100993.47
2022-09-23T20:39:11.558Z,100983.59
2022-09-23T20:42:02.692Z,100985.44
2022-09-23T20:44:29.996Z,101009.09
2022-09-23T20:46:57.729Z,101013.97
2022-09-23T20:49:25.221Z,101006.69
2022-09-23T20:51:52.372Z,101018.09
2022-09-23T20:54:19.912Z,101021.84
2022-09-23T20:56:47.775Z,101013.03
2022-09-23T20:59:17.477Z,101021.66
2022-09-23T21:01:45.241Z,101016.06
2022-09-23T21:04:13.177Z,101015.28
2022-09-23T21:06:40.460Z,101013.03
2022-09-23T21:09:07.756Z,101011.06
2022-09-23T21:11:35.569Z,101007.50
2022-09-23T21:14:02.965Z,101013.59
2022-09-23T21:16:30.689Z,101016.13
2022-09-23T21:18:58.829Z,101013.97
2022-09-23T21:21:26.538Z,101020.44
2022-09-23T21:23:54.265Z,101024.44
2022-09-23T21:26:23.967Z,101020.50
2022-09-23T21:28:57.646Z,101014.31
2022-09-23T21:31:34.402Z,101010.94
2022-09-23T21:34:04.139Z,101011.63
2022-09-23T21:36:33.385Z,101010.00
2022-09-23T21:39:04.258Z,101017.13
2022-09-23T21:41:31.667Z,101017.56
2022-09-23T21:44:00.353Z,101017.84
2022-09-23T21:46:28.943Z,101022.72
2022-09-23T21:48:57.471Z,101015.97
2022-09-23T21:51:27.039Z,101023.09
2022-09-23T21:53:57.059Z,101016.66
2022-09-23T21:56:26.468Z,101014.13
2022-09-23T21:58:55.384Z,101021.91
2022-09-23T22:01:28.063Z,101019.19
2022-09-23T22:04:07.991Z,101017.28
2022-09-23T22:06:38.087Z,101015.44
2022-09-23T22:09:09.202Z,101020.00
2022-09-23T22:11:56.550Z,101022.84
2022-09-23T22:14:25.965Z,101022.56
2022-09-23T22:16:57.354Z,101025.38
2022-09-23T22:19:34.714Z,101020.13
2022-09-23T22:22:07.012Z,101024.63
2022-09-23T22:24:34.423Z,101020.13
2022-09-23T22:27:01.744Z,101020.41
2022-09-23T22:29:47.711Z,101030.03
2022-09-23T22:32:33.694Z,101025.66
2022-09-23T22:35:00.976Z,101025.75
2022-09-23T22:37:30.494Z,101021.25
2022-09-23T22:39:57.807Z,101023.88
2022-09-23T22:42:25.233Z,101025.94
2022-09-23T22:44:52.584Z,101021.16
2022-09-23T22:47:20.288Z,101019.69
2022-09-23T22:49:48.637Z,101022.38
2022-09-23T22:52:21.069Z,101020.13
2022-09-23T22:54:48.444Z,101018.72
2022-09-23T22:57:15.722Z,101013.97
2022-09-23T22:59:47.990Z,101020.13
2022-09-23T23:02:16.979Z,101019.94
2022-09-23T23:04:46.652Z,101014.25
2022-09-23T23:07:15.422Z,101011.53
2022-09-23T23:09:42.585Z,101011.03
2022-09-23T23:12:09.886Z,101012.53
2022-09-23T23:14:38.027Z,100999.44
2022-09-23T23:17:08.395Z,101008.72
2022-09-23T23:19:37.099Z,101002.44
2022-09-23T23:22:05.296Z,101004.78
2022-09-23T23:24:32.601Z,101004.97
2022-09-23T23:26:59.815Z,101006.09
2022-09-23T23:29:27.730Z,101006.28
2022-09-23T23:31:55.101Z,101005.50
2022-09-23T23:34:22.973Z,101000.47
2022-09-23T23:36:55.065Z,100995.03
2022-09-23T23:39:24.766Z,100996.72
2022-09-23T23:41:54.715Z,100995.59
2022-09-23T23:44:23.801Z,100993.16
2022-09-23T23:46:51.981Z,100995.41
2022-09-23T23:49:19.558Z,100997.09
2022-09-23T23:51:47.767Z,100994.47
2022-09-23T23:54:15.336Z,100986.97
2022-09-23T23:56:43.282Z,100979.09
2022-09-23T23:59:10.545Z,100982.56
